sensor_id;sensor_type;location;lat;lon;timestamp;temperature;humidity
71942;DHT22;59997;53.300;-6.260;2023-05-10T00:01:25;10.76;83.89
71942;DHT22;59997;53.300;-6.260;2023-05-10T00:03:50;10.73;84.00
71942;DHT22;59997;53.300;-6.260;2023-05-10T00:06:16;10.80;83.82
71942;DHT22;59997;53.300;-6.260;2023-05-10T00:08:41;10.85;83.74
71942;DHT22;59997;53.300;-6.260;2023-05-10T00:11:07;10.93;83.49
71942;DHT22;59997;53.300;-6.260;2023-05-10T00:13:32;10.91;83.48
71942;DHT22;59997;53.300;-6.260;2023-05-10T00:15:58;10.91;83.63
71942;DHT22;59997;53.300;-6.260;2023-05-10T00:18:23;10.87;83.83
71942;DHT22;59997;53.300;-6.260;2023-05-10T00:20:49;10.94;83.93
71942;DHT22;59997;53.300;-6.260;2023-05-10T00:23:15;11.00;83.82
71942;DHT22;59997;53.300;-6.260;2023-05-10T00:25:40;11.02;83.89
71942;DHT22;59997;53.300;-6.260;2023-05-10T00:28:05;11.07;83.76
71942;DHT22;59997;53.300;-6.260;2023-05-10T00:30:31;11.12;83.56
71942;DHT22;59997;53.300;-6.260;2023-05-10T00:32:56;11.07;83.75
71942;DHT22;59997;53.300;-6.260;2023-05-10T00:35:22;11.07;83.68
71942;DHT22;59997;53.300;-6.260;2023-05-10T00:37:48;11.04;83.75
71942;DHT22;59997;53.300;-6.260;2023-05-10T00:40:14;10.91;83.99
71942;DHT22;59997;53.300;-6.260;2023-05-10T00:42:39;10.90;84.39
71942;DHT22;59997;53.300;-6.260;2023-05-10T00:45:06;10.80;84.39
71942;DHT22;59997;53.300;-6.260;2023-05-10T00:47:32;10.80;84.57
71942;DHT22;59997;53.300;-6.260;2023-05-10T00:49:58;10.81;84.87
71942;DHT22;59997;53.300;-6.260;2023-05-10T00:52:26;10.78;84.75
71942;DHT22;59997;53.300;-6.260;2023-05-10T00:54:52;10.71;84.95
71942;DHT22;59997;53.300;-6.260;2023-05-10T00:57:18;10.73;84.92
71942;DHT22;59997;53.300;-6.260;2023-05-10T00:59:44;10.56;84.98
71942;DHT22;59997;53.300;-6.260;2023-05-10T01:02:10;10.42;85.43
71942;DHT22;59997;53.300;-6.260;2023-05-10T01:04:37;10.48;85.66
71942;DHT22;59997;53.300;-6.260;2023-05-10T01:07:03;10.59;85.83
71942;DHT22;59997;53.300;-6.260;2023-05-10T01:09:28;10.80;85.70
71942;DHT22;59997;53.300;-6.260;2023-05-10T01:11:54;10.91;85.00
71942;DHT22;59997;53.300;-6.260;2023-05-10T01:14:21;10.98;84.55
71942;DHT22;59997;53.300;-6.260;2023-05-10T01:16:48;10.91;84.15
71942;DHT22;59997;53.300;-6.260;2023-05-10T01:19:23;10.77;84.37
71942;DHT22;59997;53.300;-6.260;2023-05-10T01:30:35;10.69;84.52
71942;DHT22;59997;53.300;-6.260;2023-05-10T01:33:21;10.61;84.64
71942;DHT22;59997;53.300;-6.260;2023-05-10T01:36:06;10.59;84.74
71942;DHT22;59997;53.300;-6.260;2023-05-10T01:38:44;10.63;84.83
71942;DHT22;59997;53.300;-6.260;2023-05-10T01:41:19;10.60;84.80
71942;DHT22;59997;53.300;-6.260;2023-05-10T01:44:02;10.63;84.74
71942;DHT22;59997;53.300;-6.260;2023-05-10T01:46:36;10.77;84.08
71942;DHT22;59997;53.300;-6.260;2023-05-10T01:49:09;10.84;83.96
71942;DHT22;59997;53.300;-6.260;2023-05-10T01:51:47;10.88;83.79
71942;DHT22;59997;53.300;-6.260;2023-05-10T01:54:17;10.93;83.57
71942;DHT22;59997;53.300;-6.260;2023-05-10T01:56:45;10.93;83.62
71942;DHT22;59997;53.300;-6.260;2023-05-10T01:59:14;10.95;83.60
71942;DHT22;59997;53.300;-6.260;2023-05-10T02:01:41;11.00;83.53
71942;DHT22;59997;53.300;-6.260;2023-05-10T02:04:08;10.95;83.59
71942;DHT22;59997;53.300;-6.260;2023-05-10T02:06:35;10.94;83.62
71942;DHT22;59997;53.300;-6.260;2023-05-10T02:09:02;10.85;83.72
71942;DHT22;59997;53.300;-6.260;2023-05-10T02:11:29;10.80;83.99
71942;DHT22;59997;53.300;-6.260;2023-05-10T02:13:56;10.81;83.88
71942;DHT22;59997;53.300;-6.260;2023-05-10T02:16:24;10.88;83.81
71942;DHT22;59997;53.300;-6.260;2023-05-10T02:18:52;10.84;83.97
71942;DHT22;59997;53.300;-6.260;2023-05-10T02:21:20;10.88;84.06
71942;DHT22;59997;53.300;-6.260;2023-05-10T02:23:48;10.93;84.02
71942;DHT22;59997;53.300;-6.260;2023-05-10T02:26:15;10.90;83.96
71942;DHT22;59997;53.300;-6.260;2023-05-10T02:28:42;10.85;84.10
71942;DHT22;59997;53.300;-6.260;2023-05-10T02:31:09;10.83;84.25
71942;DHT22;59997;53.300;-6.260;2023-05-10T02:33:40;10.77;84.44
71942;DHT22;59997;53.300;-6.260;2023-05-10T02:36:07;10.85;84.33
71942;DHT22;59997;53.300;-6.260;2023-05-10T02:38:34;10.81;84.39
71942;DHT22;59997;53.300;-6.260;2023-05-10T02:41:02;10.94;84.44
71942;DHT22;59997;53.300;-6.260;2023-05-10T02:43:30;10.95;84.43
71942;DHT22;59997;53.300;-6.260;2023-05-10T02:45:56;10.90;84.32
71942;DHT22;59997;53.300;-6.260;2023-05-10T02:48:22;10.83;84.52
71942;DHT22;59997;53.300;-6.260;2023-05-10T02:50:50;10.91;84.36
71942;DHT22;59997;53.300;-6.260;2023-05-10T02:53:23;10.87;84.52
71942;DHT22;59997;53.300;-6.260;2023-05-10T02:55:51;10.88;84.60
71942;DHT22;59997;53.300;-6.260;2023-05-10T02:58:17;11.02;84.39
71942;DHT22;59997;53.300;-6.260;2023-05-10T03:00:46;10.94;84.36
71942;DHT22;59997;53.300;-6.260;2023-05-10T03:03:12;10.85;84.33
71942;DHT22;59997;53.300;-6.260;2023-05-10T03:05:37;10.87;84.37
71942;DHT22;59997;53.300;-6.260;2023-05-10T03:08:03;10.76;84.60
71942;DHT22;59997;53.300;-6.260;2023-05-10T03:10:30;10.71;84.57
71942;DHT22;59997;53.300;-6.260;2023-05-10T03:16:08;10.61;84.70
71942;DHT22;59997;53.300;-6.260;2023-05-10T03:18:46;10.66;84.52
71942;DHT22;59997;53.300;-6.260;2023-05-10T03:21:13;10.71;84.22
71942;DHT22;59997;53.300;-6.260;2023-05-10T03:23:46;10.70;84.33
71942;DHT22;59997;53.300;-6.260;2023-05-10T03:26:17;10.78;84.35
71942;DHT22;59997;53.300;-6.260;2023-05-10T03:28:43;10.81;84.38
71942;DHT22;59997;53.300;-6.260;2023-05-10T03:31:09;10.77;84.62
71942;DHT22;59997;53.300;-6.260;2023-05-10T03:33:34;10.73;84.94
71942;DHT22;59997;53.300;-6.260;2023-05-10T03:36:00;10.76;85.02
71942;DHT22;59997;53.300;-6.260;2023-05-10T03:38:25;10.76;85.06
71942;DHT22;59997;53.300;-6.260;2023-05-10T03:40:51;10.77;85.12
71942;DHT22;59997;53.300;-6.260;2023-05-10T03:43:16;10.76;85.18
71942;DHT22;59997;53.300;-6.260;2023-05-10T03:45:42;10.74;85.18
71942;DHT22;59997;53.300;-6.260;2023-05-10T03:48:07;10.73;85.31
71942;DHT22;59997;53.300;-6.260;2023-05-10T03:50:33;10.70;85.44
71942;DHT22;59997;53.300;-6.260;2023-05-10T03:52:58;10.69;85.55
71942;DHT22;59997;53.300;-6.260;2023-05-10T03:55:24;10.59;85.70
71942;DHT22;59997;53.300;-6.260;2023-05-10T03:57:49;10.53;85.98
71942;DHT22;59997;53.300;-6.260;2023-05-10T04:00:15;10.52;86.22
71942;DHT22;59997;53.300;-6.260;2023-05-10T04:02:40;10.52;86.32
71942;DHT22;59997;53.300;-6.260;2023-05-10T04:05:06;10.49;86.41
71942;DHT22;59997;53.300;-6.260;2023-05-10T04:07:32;10.49;86.51
71942;DHT22;59997;53.300;-6.260;2023-05-10T04:09:57;10.52;86.63
71942;DHT22;59997;53.300;-6.260;2023-05-10T04:12:23;10.55;86.70
71942;DHT22;59997;53.300;-6.260;2023-05-10T04:14:48;10.52;86.74
71942;DHT22;59997;53.300;-6.260;2023-05-10T04:17:13;10.55;86.82
71942;DHT22;59997;53.300;-6.260;2023-05-10T04:19:39;10.57;86.83
71942;DHT22;59997;53.300;-6.260;2023-05-10T04:22:04;10.55;86.87
71942;DHT22;59997;53.300;-6.260;2023-05-10T04:24:30;10.56;86.84
71942;DHT22;59997;53.300;-6.260;2023-05-10T04:26:55;10.52;86.87
71942;DHT22;59997;53.300;-6.260;2023-05-10T04:29:21;10.55;86.87
71942;DHT22;59997;53.300;-6.260;2023-05-10T04:31:46;10.59;86.69
71942;DHT22;59997;53.300;-6.260;2023-05-10T04:34:12;10.56;86.67
71942;DHT22;59997;53.300;-6.260;2023-05-10T04:36:37;10.49;86.59
71942;DHT22;59997;53.300;-6.260;2023-05-10T04:39:03;10.49;86.79
71942;DHT22;59997;53.300;-6.260;2023-05-10T04:41:29;10.49;86.75
71942;DHT22;59997;53.300;-6.260;2023-05-10T04:43:55;10.50;86.79
71942;DHT22;59997;53.300;-6.260;2023-05-10T04:46:20;10.50;87.05
71942;DHT22;59997;53.300;-6.260;2023-05-10T04:48:46;10.42;87.01
71942;DHT22;59997;53.300;-6.260;2023-05-10T04:51:11;10.43;86.92
71942;DHT22;59997;53.300;-6.260;2023-05-10T04:53:37;10.41;86.91
71942;DHT22;59997;53.300;-6.260;2023-05-10T04:56:03;10.41;86.98
71942;DHT22;59997;53.300;-6.260;2023-05-10T04:58:29;10.42;86.99
71942;DHT22;59997;53.300;-6.260;2023-05-10T05:00:54;10.49;86.95
71942;DHT22;59997;53.300;-6.260;2023-05-10T05:03:20;10.52;86.65
71942;DHT22;59997;53.300;-6.260;2023-05-10T05:05:45;10.50;86.60
71942;DHT22;59997;53.300;-6.260;2023-05-10T05:08:10;10.60;86.18
71942;DHT22;59997;53.300;-6.260;2023-05-10T05:10:36;10.67;86.14
71942;DHT22;59997;53.300;-6.260;2023-05-10T05:13:01;10.67;85.92
71942;DHT22;59997;53.300;-6.260;2023-05-10T05:15:27;10.74;85.65
71942;DHT22;59997;53.300;-6.260;2023-05-10T05:17:53;10.71;85.51
71942;DHT22;59997;53.300;-6.260;2023-05-10T05:20:18;10.73;85.54
71942;DHT22;59997;53.300;-6.260;2023-05-10T05:22:44;10.70;85.50
71942;DHT22;59997;53.300;-6.260;2023-05-10T05:25:10;10.74;85.36
71942;DHT22;59997;53.300;-6.260;2023-05-10T05:27:36;10.73;85.54
71942;DHT22;59997;53.300;-6.260;2023-05-10T05:30:02;10.70;85.49
71942;DHT22;59997;53.300;-6.260;2023-05-10T05:32:29;10.67;85.57
71942;DHT22;59997;53.300;-6.260;2023-05-10T05:34:54;10.71;85.54
71942;DHT22;59997;53.300;-6.260;2023-05-10T05:37:20;10.74;85.19
71942;DHT22;59997;53.300;-6.260;2023-05-10T05:39:46;10.84;84.85
71942;DHT22;59997;53.300;-6.260;2023-05-10T05:42:12;10.85;84.69
71942;DHT22;59997;53.300;-6.260;2023-05-10T05:44:38;10.90;84.62
71942;DHT22;59997;53.300;-6.260;2023-05-10T05:47:04;10.85;84.19
71942;DHT22;59997;53.300;-6.260;2023-05-10T05:49:30;10.90;83.79
71942;DHT22;59997;53.300;-6.260;2023-05-10T05:52:03;10.97;83.77
71942;DHT22;59997;53.300;-6.260;2023-05-10T05:54:29;10.90;84.00
71942;DHT22;59997;53.300;-6.260;2023-05-10T05:56:59;10.93;84.06
71942;DHT22;59997;53.300;-6.260;2023-05-10T05:59:25;10.93;83.93
71942;DHT22;59997;53.300;-6.260;2023-05-10T06:01:51;10.98;84.12
71942;DHT22;59997;53.300;-6.260;2023-05-10T06:04:17;11.14;84.07
71942;DHT22;59997;53.300;-6.260;2023-05-10T06:06:43;11.28;83.88
71942;DHT22;59997;53.300;-6.260;2023-05-10T06:09:09;11.32;83.39
71942;DHT22;59997;53.300;-6.260;2023-05-10T06:11:34;11.47;82.83
71942;DHT22;59997;53.300;-6.260;2023-05-10T06:14:01;11.56;82.42
71942;DHT22;59997;53.300;-6.260;2023-05-10T06:16:27;11.57;82.26
71942;DHT22;59997;53.300;-6.260;2023-05-10T06:18:53;11.60;82.53
71942;DHT22;59997;53.300;-6.260;2023-05-10T06:21:18;11.74;82.32
71942;DHT22;59997;53.300;-6.260;2023-05-10T06:23:44;11.84;81.65
71942;DHT22;59997;53.300;-6.260;2023-05-10T06:26:09;12.01;81.27
71942;DHT22;59997;53.300;-6.260;2023-05-10T06:28:35;12.04;80.85
71942;DHT22;59997;53.300;-6.260;2023-05-10T06:31:03;12.13;80.73
71942;DHT22;59997;53.300;-6.260;2023-05-10T06:33:29;12.15;80.61
71942;DHT22;59997;53.300;-6.260;2023-05-10T06:35:55;12.18;80.25
71942;DHT22;59997;53.300;-6.260;2023-05-10T06:38:21;12.22;79.79
71942;DHT22;59997;53.300;-6.260;2023-05-10T06:40:46;12.28;79.83
71942;DHT22;59997;53.300;-6.260;2023-05-10T06:43:12;12.37;79.93
71942;DHT22;59997;53.300;-6.260;2023-05-10T06:45:37;12.46;80.29
71942;DHT22;59997;53.300;-6.260;2023-05-10T06:48:03;12.39;79.87
71942;DHT22;59997;53.300;-6.260;2023-05-10T06:50:28;12.41;79.80
71942;DHT22;59997;53.300;-6.260;2023-05-10T06:52:54;12.33;79.35
71942;DHT22;59997;53.300;-6.260;2023-05-10T06:55:21;12.16;79.83
71942;DHT22;59997;53.300;-6.260;2023-05-10T06:57:46;12.01;79.94
71942;DHT22;59997;53.300;-6.260;2023-05-10T07:00:13;11.97;80.32
71942;DHT22;59997;53.300;-6.260;2023-05-10T07:02:39;11.84;80.46
71942;DHT22;59997;53.300;-6.260;2023-05-10T07:05:05;11.84;80.82
71942;DHT22;59997;53.300;-6.260;2023-05-10T07:07:30;11.89;80.83
71942;DHT22;59997;53.300;-6.260;2023-05-10T07:09:56;11.97;81.17
71942;DHT22;59997;53.300;-6.260;2023-05-10T07:12:23;12.13;80.28
71942;DHT22;59997;53.300;-6.260;2023-05-10T07:14:48;12.32;80.55
71942;DHT22;59997;53.300;-6.260;2023-05-10T07:17:14;12.50;80.30
71942;DHT22;59997;53.300;-6.260;2023-05-10T07:19:39;12.46;79.94
71942;DHT22;59997;53.300;-6.260;2023-05-10T07:22:05;12.98;79.75
71942;DHT22;59997;53.300;-6.260;2023-05-10T07:24:32;13.03;78.77
71942;DHT22;59997;53.300;-6.260;2023-05-10T07:26:58;12.78;79.14
71942;DHT22;59997;53.300;-6.260;2023-05-10T07:29:23;12.81;78.88
71942;DHT22;59997;53.300;-6.260;2023-05-10T07:31:49;12.93;79.11
71942;DHT22;59997;53.300;-6.260;2023-05-10T07:34:14;13.09;78.65
71942;DHT22;59997;53.300;-6.260;2023-05-10T07:36:40;13.32;78.02
71942;DHT22;59997;53.300;-6.260;2023-05-10T07:39:06;13.77;77.70
71942;DHT22;59997;53.300;-6.260;2023-05-10T07:41:31;13.82;76.74
71942;DHT22;59997;53.300;-6.260;2023-05-10T07:43:57;13.78;77.11
71942;DHT22;59997;53.300;-6.260;2023-05-10T07:46:23;13.90;77.08
71942;DHT22;59997;53.300;-6.260;2023-05-10T07:48:48;13.92;77.04
71942;DHT22;59997;53.300;-6.260;2023-05-10T07:51:14;13.99;76.94
71942;DHT22;59997;53.300;-6.260;2023-05-10T07:53:40;13.85;76.82
71942;DHT22;59997;53.300;-6.260;2023-05-10T07:56:21;13.48;77.25
71942;DHT22;59997;53.300;-6.260;2023-05-10T07:58:47;13.13;78.42
71942;DHT22;59997;53.300;-6.260;2023-05-10T08:01:13;13.08;78.09
71942;DHT22;59997;53.300;-6.260;2023-05-10T08:03:38;13.54;78.11
71942;DHT22;59997;53.300;-6.260;2023-05-10T08:06:04;14.14;76.93
71942;DHT22;59997;53.300;-6.260;2023-05-10T08:08:29;14.12;76.02
71942;DHT22;59997;53.300;-6.260;2023-05-10T08:10:55;14.41;75.46
71942;DHT22;59997;53.300;-6.260;2023-05-10T08:13:21;14.47;75.13
71942;DHT22;59997;53.300;-6.260;2023-05-10T08:15:46;14.34;76.25
71942;DHT22;59997;53.300;-6.260;2023-05-10T08:18:12;14.45;75.26
71942;DHT22;59997;53.300;-6.260;2023-05-10T08:20:37;14.71;75.22
71942;DHT22;59997;53.300;-6.260;2023-05-10T08:23:03;14.58;75.57
71942;DHT22;59997;53.300;-6.260;2023-05-10T08:25:29;14.68;75.18
71942;DHT22;59997;53.300;-6.260;2023-05-10T08:27:54;14.76;74.47
71942;DHT22;59997;53.300;-6.260;2023-05-10T08:30:19;14.71;74.61
71942;DHT22;59997;53.300;-6.260;2023-05-10T08:32:45;14.58;74.36
71942;DHT22;59997;53.300;-6.260;2023-05-10T08:35:10;14.76;75.00
71942;DHT22;59997;53.300;-6.260;2023-05-10T08:37:36;14.83;74.13
71942;DHT22;59997;53.300;-6.260;2023-05-10T08:40:02;14.75;73.80
71942;DHT22;59997;53.300;-6.260;2023-05-10T08:42:30;14.90;73.86
71942;DHT22;59997;53.300;-6.260;2023-05-10T08:44:57;14.99;74.62
71942;DHT22;59997;53.300;-6.260;2023-05-10T08:47:23;14.88;74.41
71942;DHT22;59997;53.300;-6.260;2023-05-10T08:49:48;14.42;74.91
71942;DHT22;59997;53.300;-6.260;2023-05-10T08:52:17;14.20;75.53
71942;DHT22;59997;53.300;-6.260;2023-05-10T08:54:42;13.93;76.60
71942;DHT22;59997;53.300;-6.260;2023-05-10T08:57:09;13.67;77.17
71942;DHT22;59997;53.300;-6.260;2023-05-10T08:59:35;13.32;78.71
71942;DHT22;59997;53.300;-6.260;2023-05-10T09:02:04;13.27;79.46
71942;DHT22;59997;53.300;-6.260;2023-05-10T09:04:30;13.19;79.80
71942;DHT22;59997;53.300;-6.260;2023-05-10T09:06:56;13.64;79.74
71942;DHT22;59997;53.300;-6.260;2023-05-10T09:09:23;13.93;78.70
71942;DHT22;59997;53.300;-6.260;2023-05-10T09:11:51;13.65;77.24
71942;DHT22;59997;53.300;-6.260;2023-05-10T09:14:17;13.89;77.82
71942;DHT22;59997;53.300;-6.260;2023-05-10T09:16:43;14.13;76.90
71942;DHT22;59997;53.300;-6.260;2023-05-10T09:19:09;14.36;76.82
71942;DHT22;59997;53.300;-6.260;2023-05-10T09:21:37;14.52;75.43
71942;DHT22;59997;53.300;-6.260;2023-05-10T09:24:07;14.62;74.88
71942;DHT22;59997;53.300;-6.260;2023-05-10T09:26:33;14.36;75.33
71942;DHT22;59997;53.300;-6.260;2023-05-10T09:29:01;13.71;76.72
71942;DHT22;59997;53.300;-6.260;2023-05-10T09:31:50;13.95;77.79
71942;DHT22;59997;53.300;-6.260;2023-05-10T09:34:32;15.03;76.34
71942;DHT22;59997;53.300;-6.260;2023-05-10T09:37:02;16.45;71.71
71942;DHT22;59997;53.300;-6.260;2023-05-10T09:39:33;16.25;71.77
71942;DHT22;59997;53.300;-6.260;2023-05-10T09:42:01;15.65;72.22
71942;DHT22;59997;53.300;-6.260;2023-05-10T09:44:29;15.57;72.95
71942;DHT22;59997;53.300;-6.260;2023-05-10T09:46:55;15.28;73.13
71942;DHT22;59997;53.300;-6.260;2023-05-10T09:49:21;15.19;74.25
71942;DHT22;59997;53.300;-6.260;2023-05-10T09:51:47;15.14;73.29
71942;DHT22;59997;53.300;-6.260;2023-05-10T09:54:15;15.54;72.43
71942;DHT22;59997;53.300;-6.260;2023-05-10T09:56:41;15.72;72.24
71942;DHT22;59997;53.300;-6.260;2023-05-10T09:59:10;15.49;72.46
71942;DHT22;59997;53.300;-6.260;2023-05-10T10:01:36;14.93;74.77
71942;DHT22;59997;53.300;-6.260;2023-05-10T10:04:06;14.52;76.39
71942;DHT22;59997;53.300;-6.260;2023-05-10T10:06:39;14.23;77.37
71942;DHT22;59997;53.300;-6.260;2023-05-10T10:09:08;14.82;77.03
71942;DHT22;59997;53.300;-6.260;2023-05-10T10:11:35;14.69;76.18
71942;DHT22;59997;53.300;-6.260;2023-05-10T10:14:01;14.10;76.13
71942;DHT22;59997;53.300;-6.260;2023-05-10T10:16:30;14.19;77.54
71942;DHT22;59997;53.300;-6.260;2023-05-10T10:18:56;14.38;76.89
71942;DHT22;59997;53.300;-6.260;2023-05-10T10:21:22;15.06;76.69
71942;DHT22;59997;53.300;-6.260;2023-05-10T10:23:48;15.23;74.93
71942;DHT22;59997;53.300;-6.260;2023-05-10T10:26:14;14.97;75.50
71942;DHT22;59997;53.300;-6.260;2023-05-10T10:31:45;15.92;74.75
71942;DHT22;59997;53.300;-6.260;2023-05-10T10:34:25;16.88;70.62
71942;DHT22;59997;53.300;-6.260;2023-05-10T10:36:52;17.76;69.30
71942;DHT22;59997;53.300;-6.260;2023-05-10T10:39:18;17.84;68.80
71942;DHT22;59997;53.300;-6.260;2023-05-10T10:41:55;16.87;69.87
71942;DHT22;59997;53.300;-6.260;2023-05-10T10:47:02;16.11;68.78
71942;DHT22;59997;53.300;-6.260;2023-05-10T10:49:31;15.87;68.89
71942;DHT22;59997;53.300;-6.260;2023-05-10T10:57:23;15.86;69.21
71942;DHT22;59997;53.300;-6.260;2023-05-10T10:59:48;16.32;68.76
71942;DHT22;59997;53.300;-6.260;2023-05-10T11:02:34;16.49;69.50
71942;DHT22;59997;53.300;-6.260;2023-05-10T11:05:23;16.13;69.13
71942;DHT22;59997;53.300;-6.260;2023-05-10T11:07:54;15.82;70.11
71942;DHT22;59997;53.300;-6.260;2023-05-10T11:10:21;15.82;70.70
71942;DHT22;59997;53.300;-6.260;2023-05-10T11:13:03;15.54;71.99
71942;DHT22;59997;53.300;-6.260;2023-05-10T11:15:34;15.59;71.82
71942;DHT22;59997;53.300;-6.260;2023-05-10T11:18:02;15.67;71.92
71942;DHT22;59997;53.300;-6.260;2023-05-10T11:20:41;15.41;71.36
71942;DHT22;59997;53.300;-6.260;2023-05-10T11:23:14;15.24;71.76
71942;DHT22;59997;53.300;-6.260;2023-05-10T11:25:44;15.47;71.04
71942;DHT22;59997;53.300;-6.260;2023-05-10T11:28:10;15.75;70.77
71942;DHT22;59997;53.300;-6.260;2023-05-10T11:30:38;15.63;70.45
71942;DHT22;59997;53.300;-6.260;2023-05-10T11:33:05;15.89;71.45
71942;DHT22;59997;53.300;-6.260;2023-05-10T11:35:30;15.78;72.16
71942;DHT22;59997;53.300;-6.260;2023-05-10T11:37:56;15.62;71.02
71942;DHT22;59997;53.300;-6.260;2023-05-10T11:40:22;15.63;71.42
71942;DHT22;59997;53.300;-6.260;2023-05-10T11:42:50;15.61;71.69
71942;DHT22;59997;53.300;-6.260;2023-05-10T11:45:16;15.90;70.43
71942;DHT22;59997;53.300;-6.260;2023-05-10T11:47:41;16.06;69.80
71942;DHT22;59997;53.300;-6.260;2023-05-10T11:50:09;16.06;69.15
71942;DHT22;59997;53.300;-6.260;2023-05-10T11:52:36;15.83;69.43
71942;DHT22;59997;53.300;-6.260;2023-05-10T11:55:05;15.31;70.56
71942;DHT22;59997;53.300;-6.260;2023-05-10T11:57:30;14.48;72.67
71942;DHT22;59997;53.300;-6.260;2023-05-10T11:59:56;14.48;73.33
71942;DHT22;59997;53.300;-6.260;2023-05-10T12:02:22;15.02;73.32
71942;DHT22;59997;53.300;-6.260;2023-05-10T12:04:48;15.26;72.14
71942;DHT22;59997;53.300;-6.260;2023-05-10T12:07:14;15.72;71.22
71942;DHT22;59997;53.300;-6.260;2023-05-10T12:09:43;15.55;70.77
71942;DHT22;59997;53.300;-6.260;2023-05-10T12:12:10;15.81;72.29
71942;DHT22;59997;53.300;-6.260;2023-05-10T12:14:40;15.70;71.02
71942;DHT22;59997;53.300;-6.260;2023-05-10T12:17:06;15.42;72.36
71942;DHT22;59997;53.300;-6.260;2023-05-10T12:19:38;15.41;72.96
71942;DHT22;59997;53.300;-6.260;2023-05-10T12:22:05;15.38;72.54
71942;DHT22;59997;53.300;-6.260;2023-05-10T12:24:33;15.47;73.41
71942;DHT22;59997;53.300;-6.260;2023-05-10T12:26:58;15.37;71.92
71942;DHT22;59997;53.300;-6.260;2023-05-10T12:29:24;15.10;70.86
71942;DHT22;59997;53.300;-6.260;2023-05-10T12:34:32;15.55;70.95
71942;DHT22;59997;53.300;-6.260;2023-05-10T12:36:58;15.30;70.52
71942;DHT22;59997;53.300;-6.260;2023-05-10T12:39:24;15.30;72.52
71942;DHT22;59997;53.300;-6.260;2023-05-10T12:41:51;15.26;72.75
71942;DHT22;59997;53.300;-6.260;2023-05-10T12:44:17;15.21;72.81
71942;DHT22;59997;53.300;-6.260;2023-05-10T12:46:43;15.31;72.77
71942;DHT22;59997;53.300;-6.260;2023-05-10T12:49:08;15.45;73.58
71942;DHT22;59997;53.300;-6.260;2023-05-10T12:51:33;15.44;73.05
71942;DHT22;59997;53.300;-6.260;2023-05-10T12:53:59;14.96;72.67
71942;DHT22;59997;53.300;-6.260;2023-05-10T12:56:25;14.48;74.09
71942;DHT22;59997;53.300;-6.260;2023-05-10T12:58:50;14.19;76.18
71942;DHT22;59997;53.300;-6.260;2023-05-10T13:01:16;14.02;77.53
71942;DHT22;59997;53.300;-6.260;2023-05-10T13:03:42;13.95;76.76
71942;DHT22;59997;53.300;-6.260;2023-05-10T13:06:08;14.19;77.70
71942;DHT22;59997;53.300;-6.260;2023-05-10T13:08:34;14.40;78.52
71942;DHT22;59997;53.300;-6.260;2023-05-10T13:11:00;14.40;77.63
71942;DHT22;59997;53.300;-6.260;2023-05-10T13:13:26;14.65;77.36
71942;DHT22;59997;53.300;-6.260;2023-05-10T13:15:51;14.86;77.06
71942;DHT22;59997;53.300;-6.260;2023-05-10T13:18:17;15.07;75.70
71942;DHT22;59997;53.300;-6.260;2023-05-10T13:20:42;15.35;74.64
71942;DHT22;59997;53.300;-6.260;2023-05-10T13:23:09;16.03;73.31
71942;DHT22;59997;53.300;-6.260;2023-05-10T13:25:35;16.65;72.41
71942;DHT22;59997;53.300;-6.260;2023-05-10T13:28:01;16.97;69.58
71942;DHT22;59997;53.300;-6.260;2023-05-10T13:30:26;17.17;69.24
71942;DHT22;59997;53.300;-6.260;2023-05-10T13:32:52;17.01;69.36
71942;DHT22;59997;53.300;-6.260;2023-05-10T13:35:18;16.55;68.24
71942;DHT22;59997;53.300;-6.260;2023-05-10T13:37:43;16.24;69.42
71942;DHT22;59997;53.300;-6.260;2023-05-10T13:40:09;16.08;69.49
71942;DHT22;59997;53.300;-6.260;2023-05-10T13:42:34;16.73;70.33
71942;DHT22;59997;53.300;-6.260;2023-05-10T13:45:00;17.07;69.57
71942;DHT22;59997;53.300;-6.260;2023-05-10T13:47:27;17.18;69.46
71942;DHT22;59997;53.300;-6.260;2023-05-10T13:49:52;17.03;68.18
71942;DHT22;59997;53.300;-6.260;2023-05-10T13:52:18;16.42;68.70
71942;DHT22;59997;53.300;-6.260;2023-05-10T13:54:44;16.60;69.71
71942;DHT22;59997;53.300;-6.260;2023-05-10T13:57:09;17.40;67.66
71942;DHT22;59997;53.300;-6.260;2023-05-10T13:59:37;17.40;64.91
71942;DHT22;59997;53.300;-6.260;2023-05-10T14:02:02;16.94;65.62
71942;DHT22;59997;53.300;-6.260;2023-05-10T14:04:28;16.14;67.90
71942;DHT22;59997;53.300;-6.260;2023-05-10T14:06:54;15.61;69.56
71942;DHT22;59997;53.300;-6.260;2023-05-10T14:09:19;15.34;71.42
71942;DHT22;59997;53.300;-6.260;2023-05-10T14:11:45;15.24;71.05
71942;DHT22;59997;53.300;-6.260;2023-05-10T14:14:11;15.62;73.12
71942;DHT22;59997;53.300;-6.260;2023-05-10T14:16:38;16.11;72.60
71942;DHT22;59997;53.300;-6.260;2023-05-10T14:19:03;16.35;70.51
71942;DHT22;59997;53.300;-6.260;2023-05-10T14:21:29;17.17;69.68
71942;DHT22;59997;53.300;-6.260;2023-05-10T14:23:58;17.52;66.56
71942;DHT22;59997;53.300;-6.260;2023-05-10T14:26:23;18.09;65.17
71942;DHT22;59997;53.300;-6.260;2023-05-10T14:28:49;18.84;64.25
71942;DHT22;59997;53.300;-6.260;2023-05-10T14:31:14;17.84;64.10
71942;DHT22;59997;53.300;-6.260;2023-05-10T14:33:42;17.45;68.23
71942;DHT22;59997;53.300;-6.260;2023-05-10T14:36:08;17.27;68.88
71942;DHT22;59997;53.300;-6.260;2023-05-10T14:38:34;17.00;68.40
71942;DHT22;59997;53.300;-6.260;2023-05-10T14:40:59;16.83;67.31
71942;DHT22;59997;53.300;-6.260;2023-05-10T14:43:24;17.17;65.76
71942;DHT22;59997;53.300;-6.260;2023-05-10T14:45:50;17.98;64.44
71942;DHT22;59997;53.300;-6.260;2023-05-10T14:48:17;18.60;64.10
71942;DHT22;59997;53.300;-6.260;2023-05-10T14:50:43;18.67;63.62
71942;DHT22;59997;53.300;-6.260;2023-05-10T14:53:08;18.52;63.73
71942;DHT22;59997;53.300;-6.260;2023-05-10T14:55:34;18.71;63.76
71942;DHT22;59997;53.300;-6.260;2023-05-10T14:58:02;18.80;64.30
71942;DHT22;59997;53.300;-6.260;2023-05-10T15:00:29;18.35;64.56
71942;DHT22;59997;53.300;-6.260;2023-05-10T15:02:54;18.40;65.44
71942;DHT22;59997;53.300;-6.260;2023-05-10T15:05:20;18.52;65.91
71942;DHT22;59997;53.300;-6.260;2023-05-10T15:07:45;18.64;63.95
71942;DHT22;59997;53.300;-6.260;2023-05-10T15:10:11;19.14;64.68
71942;DHT22;59997;53.300;-6.260;2023-05-10T15:12:37;19.09;63.14
71942;DHT22;59997;53.300;-6.260;2023-05-10T15:15:04;18.38;64.54
71942;DHT22;59997;53.300;-6.260;2023-05-10T15:17:30;17.79;65.04
71942;DHT22;59997;53.300;-6.260;2023-05-10T15:19:55;17.40;66.18
71942;DHT22;59997;53.300;-6.260;2023-05-10T15:22:21;17.47;65.91
71942;DHT22;59997;53.300;-6.260;2023-05-10T15:24:47;17.39;65.59
71942;DHT22;59997;53.300;-6.260;2023-05-10T15:27:12;16.81;67.10
71942;DHT22;59997;53.300;-6.260;2023-05-10T15:29:37;16.42;69.25
71942;DHT22;59997;53.300;-6.260;2023-05-10T15:32:03;15.86;70.81
71942;DHT22;59997;53.300;-6.260;2023-05-10T15:34:29;15.44;70.62
71942;DHT22;59997;53.300;-6.260;2023-05-10T15:36:54;15.61;71.96
71942;DHT22;59997;53.300;-6.260;2023-05-10T15:39:20;15.32;72.50